Time;durP1;ratioP1;P1;durP2;ratioP2;P2;SDS_P1;SDS_P2;PMS_P1;PMS_P2;Temp;Humidity;BMP_temperature;BMP_pressure;BME280_temperature;BME280_humidity;BME280_pressure;Samples;Min_cycle;Max_cycle;Signal;HPM_P1;HPM_P2
2021/11/25 00:01:23;;;;;;;7.20;3.57;;;;;;;3.47;91.27;95826.09;4990679;28;20196;-70
2021/11/25 00:03:50;;;;;;;4.43;3.57;;;;;;;3.14;91.92;95828.41;4990115;28;20244;-71
2021/11/25 00:06:16;;;;;;;5.80;2.77;;;;;;;3.22;91.79;95823.31;4990785;28;20577;-69
2021/11/25 00:08:43;;;;;;;5.80;3.27;;;;;;;3.31;91.47;95817.25;4990669;28;20203;-69
2021/11/25 00:11:09;;;;;;;3.80;2.87;;;;;;;3.23;91.22;95809.34;4990504;28;20588;-69
2021/11/25 00:13:36;;;;;;;4.27;2.93;;;;;;;3.38;91.47;95807.91;4990161;28;20304;-71
2021/11/25 00:16:02;;;;;;;10.60;4.30;;;;;;;3.22;91.73;95812.91;4990579;28;20203;-70
2021/11/25 00:18:30;;;;;;;9.27;4.47;;;;;;;3.49;91.67;95810.31;4990367;28;20199;-70
2021/11/25 00:20:57;;;;;;;8.23;4.00;;;;;;;3.26;91.46;95820.28;4990342;28;20299;-70
2021/11/25 00:23:23;;;;;;;9.17;4.27;;;;;;;3.15;91.87;95811.84;4989726;28;20737;-70
2021/11/25 00:25:50;;;;;;;8.43;4.40;;;;;;;3.24;91.90;95805.78;4990239;28;20222;-70
2021/11/25 00:28:16;;;;;;;13.10;4.00;;;;;;;3.26;91.53;95811.66;4990169;28;20764;-71
2021/11/25 00:30:43;;;;;;;6.80;3.97;;;;;;;3.31;91.17;95801.63;4989839;28;20226;-71
2021/11/25 00:33:09;;;;;;;14.00;5.27;;;;;;;3.46;91.00;95795.78;4989916;28;20232;-71
2021/11/25 00:35:37;;;;;;;6.90;3.93;;;;;;;3.78;90.75;95797.00;4988849;28;20210;-71
2021/11/25 00:38:04;;;;;;;5.77;3.17;;;;;;;3.13;91.51;95798.97;4990067;28;20214;-71
2021/11/25 00:40:30;;;;;;;6.90;2.60;;;;;;;3.21;91.38;95800.88;4990001;28;20618;-71
2021/11/25 00:42:57;;;;;;;6.27;3.67;;;;;;;3.11;91.23;95789.66;4989422;28;20218;-71
2021/11/25 00:45:23;;;;;;;8.97;3.47;;;;;;;3.15;91.53;95786.63;4989653;28;20231;-71
2021/11/25 00:47:50;;;;;;;4.87;2.90;;;;;;;3.10;91.87;95785.41;4989623;28;20213;-71
2021/11/25 00:50:19;;;;;;;13.00;4.60;;;;;;;3.43;91.72;95779.66;4989655;28;20725;-69
2021/11/25 00:52:47;;;;;;;5.83;3.17;;;;;;;3.44;92.22;95779.50;4989504;28;20227;-69
2021/11/25 00:55:14;;;;;;;8.13;3.77;;;;;;;3.02;92.11;95775.72;4989496;28;20294;-71
2021/11/25 00:57:41;;;;;;;7.77;3.60;;;;;;;3.05;92.98;95772.00;4989643;28;20202;-71
2021/11/25 01:00:10;;;;;;;4.57;3.43;;;;;;;3.43;92.15;95771.84;4989675;28;20199;-71
2021/11/25 01:02:37;;;;;;;9.20;5.27;;;;;;;2.98;93.06;95768.34;4989353;28;20223;-71
2021/11/25 01:05:05;;;;;;;6.30;2.90;;;;;;;3.02;93.11;95774.91;4989304;28;20336;-71
2021/11/25 01:07:32;;;;;;;7.80;3.77;;;;;;;2.98;92.38;95777.94;4989533;28;20205;-71
2021/11/25 01:10:00;;;;;;;7.17;3.57;;;;;;;3.28;92.11;95786.31;4989330;28;20226;-72
2021/11/25 01:12:28;;;;;;;3.30;2.93;;;;;;;3.10;92.09;95777.59;4988714;28;20247;-71
2021/11/25 01:14:55;;;;;;;9.30;3.40;;;;;;;3.33;91.26;95771.06;4989530;28;20204;-71
2021/11/25 01:17:21;;;;;;;6.53;3.10;;;;;;;3.16;91.02;95774.44;4989410;28;20214;-71
2021/11/25 01:19:48;;;;;;;6.53;3.67;;;;;;;2.80;92.22;95785.66;4989410;28;20210;-70
2021/11/25 01:22:14;;;;;;;5.20;4.03;;;;;;;3.06;91.50;95784.06;4988684;28;20203;-70
2021/11/25 01:24:41;;;;;;;5.57;3.20;;;;;;;3.07;91.33;95788.31;4989187;28;20202;-70
2021/11/25 01:27:09;;;;;;;6.27;3.70;;;;;;;3.45;91.46;95773.34;4988559;28;20211;-70
2021/11/25 01:29:35;;;;;;;9.83;4.07;;;;;;;3.26;90.58;95768.22;4989174;28;21127;-70
2021/11/25 01:32:01;;;;;;;2.83;2.57;;;;;;;3.22;91.31;95766.88;4988904;28;20599;-70
2021/11/25 01:34:28;;;;;;;6.73;3.63;;;;;;;3.18;91.50;95769.91;4987969;28;20226;-70
2021/11/25 01:36:54;;;;;;;3.83;2.77;;;;;;;3.34;90.66;95770.13;4989071;28;20203;-70
2021/11/25 01:39:21;;;;;;;5.97;2.07;;;;;;;3.27;90.95;95764.66;4989118;28;20673;-70
2021/11/25 01:41:48;;;;;;;7.33;5.30;;;;;;;3.04;91.41;95762.56;4989103;28;20662;-71
2021/11/25 01:44:16;;;;;;;8.37;4.23;;;;;;;3.06;91.85;95755.44;4988734;28;20227;-71
2021/11/25 01:46:43;;;;;;;3.77;3.17;;;;;;;3.16;91.78;95756.22;4989312;28;20205;-71
2021/11/25 01:49:10;;;;;;;5.77;4.03;;;;;;;3.01;90.93;95749.84;4989069;28;20204;-71
2021/11/25 01:51:37;;;;;;;6.43;4.03;;;;;;;3.02;91.20;95747.09;4988728;28;20745;-71
2021/11/25 01:54:04;;;;;;;3.83;2.80;;;;;;;2.68;92.96;95742.56;4988439;28;20237;-71
2021/11/25 01:56:30;;;;;;;8.73;3.60;;;;;;;2.74;92.87;95743.78;4989141;28;20819;-71
2021/11/25 01:58:57;;;;;;;4.87;3.10;;;;;;;2.75;92.34;95746.25;4988929;28;20215;-71
2021/11/25 02:01:32;;;;;;;11.60;3.27;;;;;;;2.87;93.22;95747.69;4989130;28;20216;-71
2021/11/25 02:03:59;;;;;;;6.90;3.80;;;;;;;2.64;93.91;95736.00;4988527;28;20703;-71
2021/11/25 02:06:25;;;;;;;6.70;3.07;;;;;;;2.67;93.21;95733.13;4988838;28;20230;-71
2021/11/25 02:08:52;;;;;;;6.03;4.00;;;;;;;2.83;92.63;95722.13;4988708;28;20218;-71
2021/11/25 02:11:19;;;;;;;7.73;4.13;;;;;;;2.58;93.87;95718.38;4988935;28;20230;-71
2021/11/25 02:13:45;;;;;;;7.27;4.97;;;;;;;2.69;93.37;95714.78;4988483;28;20711;-71
2021/11/25 02:16:11;;;;;;;7.03;3.57;;;;;;;2.90;93.19;95715.38;4988898;28;20208;-71
2021/11/25 02:18:40;;;;;;;8.90;5.13;;;;;;;3.22;92.51;95712.22;4988774;28;20207;-71
2021/11/25 02:21:08;;;;;;;3.57;3.17;;;;;;;3.26;92.71;95704.91;4988801;28;20574;-71
2021/11/25 02:23:34;;;;;;;3.83;3.03;;;;;;;3.19;92.18;95699.47;4988156;28;20225;-71
2021/11/25 02:26:02;;;;;;;7.27;5.13;;;;;;;3.34;92.26;95703.22;4988605;28;20694;-71
2021/11/25 02:28:32;;;;;;;13.47;4.53;;;;;;;3.52;91.76;95706.66;4988723;28;20202;-71
2021/11/25 02:30:58;;;;;;;7.20;4.17;;;;;;;3.27;92.16;95698.75;4988703;28;20227;-71
2021/11/25 02:33:25;;;;;;;8.27;3.70;;;;;;;3.29;92.26;95696.81;4988316;28;20598;-71
2021/11/25 02:35:51;;;;;;;5.23;3.50;;;;;;;3.41;91.83;95682.63;4987888;28;20580;-72
2021/11/25 02:38:20;;;;;;;5.97;3.03;;;;;;;3.63;91.51;95688.22;4989701;28;20683;-71
2021/11/25 02:40:49;;;;;;;11.57;4.70;;;;;;;3.38;91.88;95682.94;4992211;28;20199;-71
2021/11/25 02:43:19;;;;;;;4.03;3.67;;;;;;;3.50;91.83;95686.94;4991734;28;20597;-71
2021/11/25 02:45:48;;;;;;;7.33;3.97;;;;;;;3.56;91.78;95681.97;4991985;28;20213;-72
2021/11/25 02:48:16;;;;;;;9.83;4.73;;;;;;;3.54;91.08;95683.06;4991595;28;20292;-71
2021/11/25 02:50:44;;;;;;;11.53;4.90;;;;;;;3.57;91.82;95680.19;4992105;28;20198;-70
2021/11/25 02:53:11;;;;;;;16.20;5.03;;;;;;;3.55;91.07;95679.50;4991802;28;20234;-69
2021/11/25 02:55:39;;;;;;;11.90;3.60;;;;;;;3.73;91.06;95675.97;4991988;28;20214;-71
2021/11/25 02:58:06;;;;;;;7.50;4.63;;;;;;;3.34;91.02;95681.59;4991924;28;20257;-69
2021/11/25 03:00:36;;;;;;;7.60;4.63;;;;;;;3.61;91.49;95684.94;4991637;28;20683;-70
2021/11/25 03:03:06;;;;;;;7.47;4.37;;;;;;;3.57;90.78;95677.59;4991495;28;20219;-70
2021/11/25 03:05:33;;;;;;;4.67;3.63;;;;;;;3.21;90.94;95676.72;4991672;28;20206;-70
2021/11/25 03:08:01;;;;;;;11.00;4.97;;;;;;;3.21;91.79;95668.09;4991632;28;20213;-70
2021/11/25 03:10:27;;;;;;;8.60;4.53;;;;;;;2.82;92.54;95674.47;4991723;28;20203;-71
2021/11/25 03:12:55;;;;;;;8.43;2.73;;;;;;;3.36;91.97;95670.06;4990780;28;20249;-71
2021/11/25 03:15:29;;;;;;;8.73;4.63;;;;;;;3.58;91.39;95668.78;4991399;28;20203;-71
2021/11/25 03:17:56;;;;;;;11.07;4.43;;;;;;;3.20;91.25;95658.66;4991231;28;20698;-71
2021/11/25 03:20:22;;;;;;;6.47;2.07;;;;;;;3.28;90.70;95666.53;4991578;28;20206;-69
2021/11/25 03:22:49;;;;;;;5.00;3.20;;;;;;;3.27;91.40;95670.09;4991112;28;20226;-71
2021/11/25 03:25:15;;;;;;;6.10;3.00;;;;;;;3.34;90.70;95665.97;4991149;28;20207;-69
2021/11/25 03:27:41;;;;;;;7.67;3.33;;;;;;;3.35;90.79;95657.19;4991321;28;20586;-69
2021/11/25 03:30:11;;;;;;;5.63;3.70;;;;;;;3.55;91.06;95663.88;4991119;28;20720;-69
2021/11/25 03:32:38;;;;;;;10.00;5.00;;;;;;;3.14;91.23;95659.22;4990940;28;20224;-71
2021/11/25 03:35:05;;;;;;;13.50;4.10;;;;;;;2.95;92.16;95659.34;4991563;28;20833;-69
2021/11/25 03:37:31;;;;;;;10.10;5.20;;;;;;;2.84;92.42;95651.75;4990996;28;20697;-69
2021/11/25 03:39:57;;;;;;;4.40;2.30;;;;;;;2.82;92.97;95660.66;4991040;28;20207;-69
2021/11/25 03:42:24;;;;;;;17.67;5.33;;;;;;;2.77;93.09;95653.25;4990469;28;20207;-71
2021/11/25 03:44:51;;;;;;;8.90;4.70;;;;;;;2.71;93.65;95646.06;4991102;28;20252;-71
2021/11/25 03:47:19;;;;;;;9.63;4.20;;;;;;;3.28;92.07;95640.50;4991057;28;20559;-71
2021/11/25 03:49:46;;;;;;;11.33;4.73;;;;;;;3.16;91.73;95641.69;4990094;28;20230;-69
2021/11/25 03:52:13;;;;;;;11.80;4.10;;;;;;;3.25;91.84;95640.81;4990563;28;20219;-70
2021/11/25 03:54:39;;;;;;;3.60;3.30;;;;;;;3.11;92.12;95638.72;4989576;28;20255;-70
2021/11/25 03:57:06;;;;;;;5.87;3.27;;;;;;;3.17;92.04;95636.34;4990552;28;21238;-70
2021/11/25 03:59:32;;;;;;;8.53;4.00;;;;;;;3.20;91.65;95633.44;4990740;28;20205;-71
2021/11/25 04:01:59;;;;;;;10.60;4.77;;;;;;;3.17;91.84;95632.91;4990586;28;20204;-72
2021/11/25 04:04:27;;;;;;;8.47;3.17;;;;;;;3.26;92.27;95624.19;4990212;28;20717;-71
2021/11/25 04:06:54;;;;;;;10.73;4.33;;;;;;;3.00;92.09;95625.88;4990405;28;20233;-71
2021/11/25 04:09:20;;;;;;;13.07;4.37;;;;;;;3.00;92.52;95619.88;4990632;28;20232;-71
2021/11/25 04:11:47;;;;;;;20.27;4.23;;;;;;;3.04;92.44;95614.22;4990545;28;20238;-71
2021/11/25 04:14:13;;;;;;;5.27;4.57;;;;;;;3.12;92.45;95625.53;4990100;28;20236;-70
2021/11/25 04:16:40;;;;;;;7.07;2.73;;;;;;;3.34;92.06;95614.69;4990418;28;20579;-70
2021/11/25 04:19:07;;;;;;;8.97;4.37;;;;;;;3.06;92.33;95625.31;4990052;28;20675;-71
2021/11/25 04:21:34;;;;;;;7.37;3.50;;;;;;;3.51;91.87;95626.09;4990133;28;20199;-71
2021/11/25 04:24:01;;;;;;;7.77;4.67;;;;;;;3.15;92.19;95627.03;4989951;28;20219;-71
2021/11/25 04:26:27;;;;;;;9.93;3.83;;;;;;;3.29;91.60;95611.72;4990354;28;20286;-71
2021/11/25 04:28:54;;;;;;;6.33;4.30;;;;;;;3.36;90.89;95615.38;4990090;28;20207;-71
2021/11/25 04:36:51;;;;;;;7.50;4.00;;;;;;;3.23;92.60;95603.69;4989972;28;20237;-71
2021/11/25 04:39:17;;;;;;;5.83;4.53;;;;;;;2.94;92.49;95603.09;4989604;28;20694;-71
2021/11/25 04:41:44;;;;;;;9.43;3.40;;;;;;;2.87;93.45;95607.22;4989948;28;20196;-71
2021/11/25 04:44:10;;;;;;;9.77;3.93;;;;;;;3.06;92.41;95618.31;4989260;28;20233;-72
2021/11/25 04:46:37;;;;;;;8.10;3.93;;;;;;;2.90;92.86;95611.31;4989779;28;20207;-69
2021/11/25 04:49:05;;;;;;;15.90;3.73;;;;;;;2.81;93.15;95615.59;4990081;28;20218;-70
2021/11/25 04:51:32;;;;;;;5.00;3.00;;;;;;;2.81;93.58;95605.19;4989542;28;20294;-69
2021/11/25 04:54:00;;;;;;;3.80;2.27;;;;;;;2.99;93.87;95597.41;4989372;28;20236;-71
2021/11/25 04:56:26;;;;;;;5.93;3.63;;;;;;;2.75;93.96;95600.59;4989670;28;20209;-71
2021/11/25 04:58:53;;;;;;;15.77;3.07;;;;;;;2.88;93.83;95597.63;4989421;28;20599;-71
2021/11/25 05:01:19;;;;;;;15.83;3.77;;;;;;;2.91;93.59;95592.94;4989028;28;20579;-71
2021/11/25 05:03:46;;;;;;;9.93;3.03;;;;;;;2.99;93.20;95587.81;4989370;28;20226;-71
2021/11/25 05:06:12;;;;;;;9.73;4.20;;;;;;;2.81;93.90;95589.56;4989644;28;20586;-71
2021/11/25 05:08:39;;;;;;;7.13;2.97;;;;;;;2.93;92.75;95583.22;4989612;28;20207;-71
2021/11/25 05:11:07;;;;;;;9.03;4.57;;;;;;;3.06;93.64;95588.88;4989470;28;20214;-71
2021/11/25 05:13:33;;;;;;;10.13;6.33;;;;;;;3.04;92.75;95590.81;4988827;28;20691;-71
2021/11/25 05:16:00;;;;;;;8.60;5.57;;;;;;;3.01;93.04;95585.91;4989298;28;20925;-71
2021/11/25 05:18:27;;;;;;;7.53;5.17;;;;;;;2.93;93.14;95585.81;4989587;28;20206;-70
2021/11/25 05:20:54;;;;;;;11.77;6.57;;;;;;;2.87;93.51;95589.00;4989022;28;20210;-70
2021/11/25 05:23:20;;;;;;;11.10;6.50;;;;;;;2.82;93.58;95582.63;4989133;28;20228;-70
2021/11/25 05:25:47;;;;;;;11.93;5.93;;;;;;;2.70;94.24;95587.19;4989435;28;20578;-71
2021/11/25 05:28:15;;;;;;;11.23;5.77;;;;;;;2.95;94.32;95591.69;4988646;28;20212;-71
2021/11/25 05:30:41;;;;;;;11.23;6.10;;;;;;;2.53;94.18;95595.78;4989270;28;20569;-69
2021/11/25 05:33:08;;;;;;;4.13;3.60;;;;;;;2.64;94.22;95597.38;4988841;28;20239;-70
2021/11/25 05:35:35;;;;;;;9.30;3.40;;;;;;;2.84;94.32;95594.50;4988432;28;20239;-70
2021/11/25 05:38:01;;;;;;;9.77;4.37;;;;;;;2.83;93.30;95585.06;4989194;28;20204;-69
2021/11/25 05:40:28;;;;;;;8.53;3.27;;;;;;;2.94;93.56;95579.66;4989313;28;20206;-69
2021/11/25 05:42:54;;;;;;;11.63;3.97;;;;;;;2.97;92.80;95587.16;4988635;28;20227;-70
2021/11/25 05:45:23;;;;;;;4.50;3.33;;;;;;;2.84;94.09;95583.25;4989143;28;20227;-69
2021/11/25 05:47:49;;;;;;;5.00;4.10;;;;;;;2.84;92.96;95588.47;4989042;28;20213;-70
2021/11/25 05:50:19;;;;;;;10.20;5.37;;;;;;;3.11;93.15;95578.84;4989104;28;20578;-70
2021/11/25 05:52:47;;;;;;;6.27;4.23;;;;;;;2.82;92.51;95580.81;4988762;28;20231;-70
2021/11/25 05:55:13;;;;;;;9.67;3.80;;;;;;;2.67;93.24;95586.66;4989012;28;20199;-69
2021/11/25 05:57:40;;;;;;;13.90;6.50;;;;;;;2.81;92.91;95588.78;4989151;28;20207;-71
2021/11/25 06:00:10;;;;;;;10.23;4.57;;;;;;;3.07;93.15;95596.53;4989050;28;20209;-70
2021/11/25 06:02:38;;;;;;;13.17;5.17;;;;;;;2.98;93.95;95586.22;4988710;28;20254;-70
2021/11/25 06:05:06;;;;;;;9.17;4.80;;;;;;;3.05;92.90;95571.63;4983224;28;20299;-71
2021/11/25 06:07:32;;;;;;;8.80;3.87;;;;;;;2.71;93.60;95578.44;4977369;28;20199;-69
2021/11/25 06:09:58;;;;;;;2.67;2.40;;;;;;;2.95;93.24;95580.47;4983743;28;20210;-68
2021/11/25 06:12:25;;;;;;;9.37;4.33;;;;;;;3.12;92.13;95578.69;4990136;28;20225;-70
2021/11/25 06:14:52;;;;;;;5.10;3.43;;;;;;;3.02;91.92;95583.16;4992359;28;20207;-68
2021/11/25 06:17:18;;;;;;;10.10;5.00;;;;;;;3.09;92.11;95578.16;4992756;28;20200;-70
2021/11/25 06:19:46;;;;;;;10.40;4.07;;;;;;;3.43;91.17;95574.75;4992354;28;20199;-70
2021/11/25 06:22:12;;;;;;;3.47;3.00;;;;;;;3.11;91.54;95565.84;4991993;28;20203;-70
2021/11/25 06:24:39;;;;;;;11.20;3.70;;;;;;;3.25;91.31;95557.50;4991742;28;20227;-70
2021/11/25 06:27:06;;;;;;;2.90;1.83;;;;;;;3.05;93.21;95561.22;4992289;28;20693;-70
2021/11/25 06:29:32;;;;;;;8.17;5.70;;;;;;;3.00;92.24;95562.63;4992487;28;20212;-70
2021/11/25 06:31:59;;;;;;;7.67;3.80;;;;;;;2.92;92.76;95559.97;4992250;28;20217;-70
2021/11/25 06:34:25;;;;;;;10.47;4.23;;;;;;;2.91;92.70;95563.53;4991151;28;20711;-70
2021/11/25 06:36:53;;;;;;;7.23;3.53;;;;;;;3.02;94.15;95556.31;4992230;28;20214;-70
2021/11/25 06:39:19;;;;;;;10.53;5.80;;;;;;;3.04;93.02;95556.97;4992176;28;20214;-70
2021/11/25 06:41:46;;;;;;;4.73;3.23;;;;;;;2.90;92.58;95547.06;4992325;28;20206;-69
2021/11/25 06:44:12;;;;;;;3.47;2.10;;;;;;;2.67;93.07;95556.28;4985435;28;20227;-71
2021/11/25 06:46:39;;;;;;;14.37;5.47;;;;;;;2.81;92.93;95570.56;4988723;28;20204;-68
2021/11/25 06:49:05;;;;;;;2.47;2.30;;;;;;;2.58;93.67;95580.56;4995683;28;20583;-69
2021/11/25 06:51:32;;;;;;;4.87;3.63;;;;;;;2.77;93.20;95583.03;4991729;28;20212;-71
2021/11/25 06:54:01;;;;;;;6.40;4.07;;;;;;;2.98;93.48;95582.75;4991409;28;20241;-70
2021/11/25 06:56:28;;;;;;;10.43;3.87;;;;;;;2.78;93.34;95591.69;4991759;28;20207;-70
2021/11/25 06:58:56;;;;;;;8.77;4.33;;;;;;;2.52;94.29;95594.13;4990374;28;20210;-70
2021/11/25 07:01:23;;;;;;;11.23;3.83;;;;;;;2.72;93.96;95595.66;4990248;28;20202;-70
2021/11/25 07:03:50;;;;;;;16.77;3.57;;;;;;;2.75;93.50;95589.34;4989832;28;20227;-70
2021/11/25 07:06:16;;;;;;;2.07;1.87;;;;;;;2.83;93.36;95597.25;4993599;28;20195;-72
2021/11/25 07:08:43;;;;;;;6.60;3.73;;;;;;;2.63;93.65;95606.94;5000548;28;20195;-70
2021/11/25 07:11:11;;;;;;;3.53;2.57;;;;;;;3.07;93.40;95603.53;4995585;28;20211;-71
2021/11/25 07:13:37;;;;;;;8.00;4.67;;;;;;;2.96;92.44;95608.94;4991153;28;20227;-71
2021/11/25 07:16:04;;;;;;;4.33;2.50;;;;;;;2.88;92.78;95613.22;4991281;28;20207;-71
2021/11/25 07:18:31;;;;;;;8.03;3.60;;;;;;;2.74;93.54;95624.94;4991270;28;20206;-71
2021/11/25 07:20:58;;;;;;;10.33;3.03;;;;;;;2.90;93.39;95616.50;4991492;28;20541;-71
2021/11/25 07:23:25;;;;;;;4.27;2.43;;;;;;;2.74;93.81;95622.34;4996610;28;20260;-70
2021/11/25 07:25:52;;;;;;;5.97;3.80;;;;;;;2.93;92.68;95609.25;4994017;28;20202;-71
2021/11/25 07:28:19;;;;;;;9.70;4.30;;;;;;;3.23;92.79;95599.31;4991150;28;20203;-71
2021/11/25 07:30:46;;;;;;;8.07;3.57;;;;;;;2.82;93.54;95606.84;4991714;28;20664;-70
2021/11/25 07:33:12;;;;;;;2.60;2.13;;;;;;;2.80;93.84;95611.38;4993124;28;20227;-69
2021/11/25 07:35:43;;;;;;;10.07;3.83;;;;;;;2.91;93.68;95603.34;4993107;28;20241;-71
2021/11/25 07:38:10;;;;;;;9.50;4.67;;;;;;;2.91;93.88;95597.34;4997065;28;20218;-70
2021/11/25 07:40:37;;;;;;;8.37;3.97;;;;;;;3.03;93.38;95589.19;5000424;28;20201;-69
2021/11/25 07:43:03;;;;;;;3.67;2.90;;;;;;;2.96;93.78;95589.91;4992397;28;20223;-70
2021/11/25 07:45:33;;;;;;;8.40;3.07;;;;;;;3.33;93.60;95588.81;4990775;28;20217;-70
2021/11/25 07:47:59;;;;;;;16.47;4.33;;;;;;;3.22;92.47;95583.81;4992954;28;20211;-71
2021/11/25 07:50:26;;;;;;;6.80;4.20;;;;;;;3.33;92.53;95581.00;5000287;28;20203;-72
2021/11/25 07:52:53;;;;;;;11.07;4.90;;;;;;;3.29;92.39;95585.69;4996072;28;20231;-71
2021/11/25 07:55:20;;;;;;;4.73;3.67;;;;;;;3.15;92.23;95582.78;4991386;28;20215;-70
2021/11/25 07:57:48;;;;;;;6.60;4.10;;;;;;;3.35;92.39;95573.88;4990665;28;20230;-70
2021/11/25 08:00:16;;;;;;;16.00;5.17;;;;;;;3.17;93.16;95571.28;4992263;28;20261;-69
2021/11/25 08:02:44;;;;;;;3.50;2.93;;;;;;;3.23;93.96;95564.63;4992633;28;20215;-69
2021/11/25 08:05:11;;;;;;;6.60;3.00;;;;;;;3.34;93.03;95569.63;4993303;28;20772;-70
2021/11/25 08:07:40;;;;;;;7.57;3.33;;;;;;;3.13;93.88;95574.31;4998446;28;20207;-71
2021/11/25 08:10:08;;;;;;;8.40;3.70;;;;;;;3.62;92.56;95578.97;4995836;28;20648;-69
2021/11/25 08:12:35;;;;;;;8.53;4.27;;;;;;;3.27;92.37;95566.81;4990831;28;20225;-68
2021/11/25 08:15:01;;;;;;;7.43;3.47;;;;;;;3.30;91.54;95570.91;4990236;28;20206;-70
2021/11/25 08:17:28;;;;;;;9.53;3.30;;;;;;;3.04;92.10;95562.19;4990457;28;20200;-70
2021/11/25 08:19:56;;;;;;;5.27;3.30;;;;;;;3.47;91.56;95564.84;4990496;28;20214;-70
2021/11/25 08:22:22;;;;;;;17.73;3.23;;;;;;;3.24;91.32;95567.09;4990194;28;20205;-70
2021/11/25 08:24:49;;;;;;;3.07;2.67;;;;;;;3.32;91.37;95553.31;4996509;28;20217;-68
2021/11/25 08:27:15;;;;;;;6.43;4.17;;;;;;;3.44;90.97;95557.34;4997003;28;20675;-70
2021/11/25 08:29:42;;;;;;;6.33;2.80;;;;;;;3.44;91.02;95557.34;4989801;28;20206;-70
2021/11/25 08:32:09;;;;;;;13.53;5.60;;;;;;;3.35;91.66;95551.25;4993336;28;20675;-69
2021/11/25 08:34:36;;;;;;;13.40;3.33;;;;;;;3.15;91.80;95546.34;4990086;28;20227;-70
2021/11/25 08:37:04;;;;;;;6.43;4.33;;;;;;;3.00;92.94;95550.44;4990009;28;20833;-70
2021/11/25 08:39:30;;;;;;;2.60;2.40;;;;;;;2.86;93.21;95556.13;4990302;28;20304;-69
2021/11/25 08:41:57;;;;;;;11.17;4.53;;;;;;;2.94;93.45;95563.22;4990371;28;20207;-69
2021/11/25 08:44:23;;;;;;;5.43;3.53;;;;;;;3.02;92.96;95562.31;4994431;28;20745;-69
2021/11/25 08:46:50;;;;;;;12.47;4.23;;;;;;;2.90;92.94;95562.69;4990814;28;20216;-71
2021/11/25 08:49:16;;;;;;;4.20;1.97;;;;;;;2.96;93.80;95572.50;4992244;28;20674;-70
2021/11/25 08:51:43;;;;;;;4.07;2.27;;;;;;;3.28;92.97;95571.03;4994144;28;20202;-69
2021/11/25 08:54:11;;;;;;;11.33;4.83;;;;;;;3.60;91.58;95576.50;4989246;28;20235;-71
2021/11/25 08:56:37;;;;;;;7.93;3.37;;;;;;;3.28;91.35;95572.81;4989569;28;20201;-70
2021/11/25 08:59:04;;;;;;;5.97;3.27;;;;;;;3.37;91.37;95571.94;4989457;28;20671;-69
2021/11/25 09:01:30;;;;;;;6.10;2.87;;;;;;;3.46;91.11;95565.81;4989368;28;20207;-70
2021/11/25 09:03:58;;;;;;;6.93;3.60;;;;;;;3.28;91.67;95567.63;4989362;28;20349;-69
2021/11/25 09:06:25;;;;;;;3.00;2.70;;;;;;;3.25;91.82;95562.72;4989758;28;20205;-70
2021/11/25 09:08:51;;;;;;;5.60;3.27;;;;;;;3.27;91.84;95571.19;4989557;28;20219;-70
2021/11/25 09:11:19;;;;;;;7.13;4.30;;;;;;;3.78;90.77;95566.88;4989187;28;20206;-70
2021/11/25 09:13:46;;;;;;;3.30;2.70;;;;;;;3.33;90.58;95573.19;4989178;28;20231;-70
2021/11/25 09:16:13;;;;;;;4.70;3.53;;;;;;;3.22;91.02;95576.00;4989564;28;20214;-71
2021/11/25 09:18:39;;;;;;;11.40;3.80;;;;;;;3.16;91.31;95569.63;4989775;28;20203;-70
2021/11/25 09:21:06;;;;;;;10.10;4.17;;;;;;;3.21;91.60;95571.78;4990220;28;20208;-69
2021/11/25 09:23:33;;;;;;;11.30;5.07;;;;;;;2.96;91.72;95588.13;4988834;28;20219;-70
2021/11/25 09:25:59;;;;;;;7.03;3.77;;;;;;;3.07;91.38;95580.13;4990195;28;20199;-69
2021/11/25 09:28:28;;;;;;;11.60;3.70;;;;;;;3.40;91.22;95587.25;4990622;28;20214;-69
2021/11/25 09:30:55;;;;;;;7.17;3.40;;;;;;;3.32;90.92;95584.56;4990145;28;20217;-71
2021/11/25 09:33:22;;;;;;;6.30;3.57;;;;;;;3.31;90.76;95588.97;4988726;28;20229;-72
2021/11/25 09:35:49;;;;;;;6.73;2.53;;;;;;;3.59;89.98;95594.91;4988476;28;20207;-72
2021/11/25 09:38:16;;;;;;;6.27;2.50;;;;;;;3.67;90.24;95593.19;4989060;28;20209;-70
2021/11/25 09:40:45;;;;;;;10.63;2.80;;;;;;;3.87;89.47;95592.84;4988949;28;20208;-71
2021/11/25 09:43:16;;;;;;;3.60;2.87;;;;;;;3.73;90.06;95590.78;4988810;28;20232;-70
2021/11/25 09:45:45;;;;;;;6.93;3.63;;;;;;;3.33;90.42;95586.22;5030403;22;20276;-69
2021/11/25 09:48:13;;;;;;;5.43;2.40;;;;;;;3.65;89.87;95593.34;4993052;28;20201;-69
2021/11/25 09:50:43;;;;;;;3.03;2.30;;;;;;;3.89;89.17;95585.69;4993696;28;20213;-69
2021/11/25 09:53:12;;;;;;;4.90;3.77;;;;;;;3.61;88.79;95580.75;4993666;28;20652;-69
2021/11/25 09:55:42;;;;;;;5.00;2.73;;;;;;;3.51;90.18;95589.63;5000871;28;20226;-69
2021/11/25 09:58:12;;;;;;;6.33;3.70;;;;;;;3.43;89.99;95592.16;4993727;28;20604;-69
2021/11/25 10:00:40;;;;;;;6.83;3.43;;;;;;;3.62;89.95;95585.81;4993754;28;20645;-68
2021/11/25 10:03:08;;;;;;;3.13;2.13;;;;;;;3.58;90.39;95581.06;4993287;28;20546;-69
2021/11/25 10:05:34;;;;;;;5.43;2.67;;;;;;;3.58;90.02;95586.28;4993385;28;20657;-69
2021/11/25 10:08:01;;;;;;;7.70;3.60;;;;;;;3.61;89.59;95585.97;4995143;28;20214;-69
2021/11/25 10:10:30;;;;;;;13.90;4.57;;;;;;;3.77;90.30;95581.69;4999042;28;20223;-69
2021/11/25 10:12:59;;;;;;;4.83;2.53;;;;;;;3.56;91.43;95576.97;4993425;28;20302;-69
2021/11/25 10:15:30;;;;;;;12.73;4.17;;;;;;;3.76;91.64;95577.44;4992956;28;20721;-69
2021/11/25 10:17:59;;;;;;;12.87;5.57;;;;;;;3.66;90.95;95579.31;4993787;28;20280;-69
2021/11/25 10:20:31;;;;;;;4.80;2.83;;;;;;;3.61;91.08;95569.53;4992499;28;20250;-69
2021/11/25 10:23:15;;;;;;;10.13;3.47;;;;;;;3.82;90.62;95574.25;4992401;28;20214;-69
2021/11/25 10:25:49;;;;;;;4.03;3.03;;;;;;;3.77;90.43;95570.47;4993288;28;20230;-68
2021/11/25 10:28:20;;;;;;;5.70;3.60;;;;;;;3.90;90.73;95565.66;4992130;28;20209;-69
2021/11/25 10:30:47;;;;;;;10.97;4.70;;;;;;;3.74;90.34;95561.16;4981031;28;21038;-68
2021/11/25 10:33:13;;;;;;;12.50;4.77;;;;;;;3.71;90.24;95571.06;4979099;28;20209;-69
2021/11/25 10:35:52;;;;;;;10.70;4.17;;;;;;;4.08;89.35;95564.63;4992851;28;20700;-69
2021/11/25 10:38:35;;;;;;;8.60;3.83;;;;;;;3.71;89.97;95558.03;4992926;28;20198;-69
2021/11/25 10:41:12;;;;;;;5.23;2.47;;;;;;;4.02;89.88;95559.22;4993185;28;20218;-68
2021/11/25 10:43:39;;;;;;;11.73;4.50;;;;;;;3.73;89.82;95564.75;4986328;28;20213;-69
2021/11/25 10:46:06;;;;;;;8.80;4.37;;;;;;;3.74;90.26;95563.78;4981738;28;20230;-68
2021/11/25 10:48:36;;;;;;;10.53;2.80;;;;;;;3.99;89.84;95562.94;4994510;28;20234;-68
2021/11/25 10:51:25;;;;;;;13.60;4.77;;;;;;;4.16;89.71;95543.81;4980944;28;20211;-69
2021/11/25 10:54:02;;;;;;;7.87;4.23;;;;;;;3.51;91.66;95540.94;4980235;28;21174;-69
2021/11/25 10:56:36;;;;;;;9.70;2.03;;;;;;;3.32;93.84;95553.31;4983003;28;20667;-68
2021/11/25 10:59:03;;;;;;;6.40;3.00;;;;;;;2.92;94.39;95552.16;4991391;28;20657;-68
2021/11/25 11:01:35;;;;;;;11.23;3.53;;;;;;;2.72;95.55;95553.22;4992263;28;20207;-68
2021/11/25 11:04:01;;;;;;;4.83;3.33;;;;;;;2.84;95.16;95537.28;5000172;28;20214;-69
2021/11/25 11:06:33;;;;;;;5.13;3.20;;;;;;;3.05;96.62;95532.59;4992354;28;20203;-69
2021/11/25 11:09:00;;;;;;;12.80;5.50;;;;;;;2.78;96.52;95537.06;4992590;28;20217;-69
2021/11/25 11:11:27;;;;;;;4.23;2.33;;;;;;;2.52;95.76;95546.50;4992103;28;20199;-69
2021/11/25 11:14:15;;;;;;;3.97;3.50;;;;;;;3.96;98.51;95537.19;4992095;28;20227;-69
2021/11/25 11:16:46;;;;;;;10.30;4.85;;;;;;;4.38;94.40;95538.06;4992447;28;20797;-68
2021/11/25 11:19:14;;;;;;;14.63;3.13;;;;;;;3.50;91.01;95530.69;4992391;28;20206;-69
2021/11/25 11:21:44;;;;;;;7.47;3.63;;;;;;;3.51;92.75;95524.50;4992303;28;20207;-69
2021/11/25 11:24:12;;;;;;;5.53;4.20;;;;;;;3.38;92.06;95518.88;4991898;28;20206;-68
2021/11/25 11:26:41;;;;;;;6.20;1.93;;;;;;;3.34;91.89;95533.19;4996875;28;20202;-68
2021/11/25 11:29:08;;;;;;;5.70;3.03;;;;;;;2.97;93.37;95532.53;4992872;28;20281;-69
2021/11/25 11:31:36;;;;;;;9.93;3.93;;;;;;;2.70;94.88;95519.56;4992354;28;20196;-69
2021/11/25 11:34:05;;;;;;;9.70;3.70;;;;;;;3.15;94.27;95510.72;4998888;28;20231;-69
2021/11/25 11:36:33;;;;;;;6.93;2.23;;;;;;;3.33;91.10;95505.50;4992205;28;20215;-70
2021/11/25 11:39:01;;;;;;;6.90;3.37;;;;;;;3.65;90.56;95502.16;4991710;28;20211;-69
2021/11/25 11:41:30;;;;;;;7.70;2.97;;;;;;;3.52;90.08;95494.91;4992993;28;20630;-69
2021/11/25 11:43:56;;;;;;;5.03;2.87;;;;;;;3.52;89.92;95500.13;4991297;28;20211;-69
2021/11/25 11:46:23;;;;;;;8.30;2.80;;;;;;;3.42;90.55;95500.19;4992158;28;20207;-69